sensor_id;sensor_type;location;lat;lon;timestamp;pressure;altitude;pressure_sealevel;temperature;humidity
48652;BME280;34442;52.362;-1.302;2022-10-13T00:01:21;100394.13;;;15.32;100.00
48652;BME280;34442;52.362;-1.302;2022-10-13T00:03:47;100403.78;;;15.28;100.00
48652;BME280;34442;52.362;-1.302;2022-10-13T00:06:16;100387.78;;;15.27;100.00
48652;BME280;34442;52.362;-1.302;2022-10-13T00:08:43;100384.22;;;15.26;100.00
48652;BME280;34442;52.362;-1.302;2022-10-13T00:11:29;100395.06;;;15.26;100.00
48652;BME280;34442;52.362;-1.302;2022-10-13T00:14:01;100381.50;;;15.26;100.00
48652;BME280;34442;52.362;-1.302;2022-10-13T00:16:27;100389.31;;;15.23;100.00
48652;BME280;34442;52.362;-1.302;2022-10-13T00:18:54;100384.72;;;15.23;100.00
48652;BME280;34442;52.362;-1.302;2022-10-13T00:21:22;100385.06;;;15.27;100.00
48652;BME280;34442;52.362;-1.302;2022-10-13T00:23:50;100372.34;;;15.27;100.00
48652;BME280;34442;52.362;-1.302;2022-10-13T00:26:17;100383.41;;;15.26;100.00
48652;BME280;34442;52.362;-1.302;2022-10-13T00:28:43;100386.47;;;15.29;100.00
48652;BME280;34442;52.362;-1.302;2022-10-13T00:31:17;100388.69;;;15.32;100.00
48652;BME280;34442;52.362;-1.302;2022-10-13T00:33:44;100375.41;;;15.31;100.00
48652;BME280;34442;52.362;-1.302;2022-10-13T00:36:10;100381.28;;;15.28;100.00
48652;BME280;34442;52.362;-1.302;2022-10-13T00:38:36;100389.88;;;15.25;100.00
48652;BME280;34442;52.362;-1.302;2022-10-13T00:41:02;100390.94;;;15.24;100.00
48652;BME280;34442;52.362;-1.302;2022-10-13T00:46:51;100394.22;;;15.26;100.00
48652;BME280;34442;52.362;-1.302;2022-10-13T00:49:17;100382.81;;;15.24;100.00
48652;BME280;34442;52.362;-1.302;2022-10-13T00:51:45;100377.63;;;15.22;100.00
48652;BME280;34442;52.362;-1.302;2022-10-13T00:54:16;100381.19;;;15.23;100.00
48652;BME280;34442;52.362;-1.302;2022-10-13T00:56:43;100374.59;;;15.19;100.00
48652;BME280;34442;52.362;-1.302;2022-10-13T00:59:21;100375.41;;;15.19;100.00
48652;BME280;34442;52.362;-1.302;2022-10-13T01:01:50;100375.28;;;15.14;100.00
48652;BME280;34442;52.362;-1.302;2022-10-13T01:04:17;100370.94;;;15.13;100.00
48652;BME280;34442;52.362;-1.302;2022-10-13T01:06:45;100364.13;;;15.10;100.00
48652;BME280;34442;52.362;-1.302;2022-10-13T01:09:12;100369.53;;;15.10;100.00
48652;BME280;34442;52.362;-1.302;2022-10-13T01:12:13;100364.59;;;15.07;100.00
48652;BME280;34442;52.362;-1.302;2022-10-13T01:15:18;100371.28;;;15.05;100.00
48652;BME280;34442;52.362;-1.302;2022-10-13T01:18:10;100365.53;;;15.01;100.00
48652;BME280;34442;52.362;-1.302;2022-10-13T01:20:50;100364.34;;;14.97;100.00
48652;BME280;34442;52.362;-1.302;2022-10-13T01:37:42;100360.47;;;14.70;100.00
48652;BME280;34442;52.362;-1.302;2022-10-13T01:40:23;100353.28;;;14.63;100.00
48652;BME280;34442;52.362;-1.302;2022-10-13T01:42:57;100354.34;;;14.62;100.00
48652;BME280;34442;52.362;-1.302;2022-10-13T01:45:49;100350.47;;;14.70;100.00
48652;BME280;34442;52.362;-1.302;2022-10-13T01:48:18;100347.31;;;14.73;100.00
48652;BME280;34442;52.362;-1.302;2022-10-13T01:50:46;100339.41;;;14.72;100.00
48652;BME280;34442;52.362;-1.302;2022-10-13T01:53:13;100344.00;;;14.71;100.00
48652;BME280;34442;52.362;-1.302;2022-10-13T01:55:57;100340.00;;;14.74;100.00
48652;BME280;34442;52.362;-1.302;2022-10-13T01:58:26;100335.97;;;14.76;100.00
48652;BME280;34442;52.362;-1.302;2022-10-13T02:01:13;100343.41;;;14.81;100.00
48652;BME280;34442;52.362;-1.302;2022-10-13T02:09:10;100336.44;;;14.85;100.00
48652;BME280;34442;52.362;-1.302;2022-10-13T02:11:45;100329.75;;;14.87;100.00
48652;BME280;34442;52.362;-1.302;2022-10-13T02:14:25;100331.66;;;14.87;100.00
48652;BME280;34442;52.362;-1.302;2022-10-13T02:16:53;100329.41;;;14.84;100.00
48652;BME280;34442;52.362;-1.302;2022-10-13T02:19:21;100329.88;;;14.81;100.00
48652;BME280;34442;52.362;-1.302;2022-10-13T02:21:48;100325.31;;;14.81;100.00
48652;BME280;34442;52.362;-1.302;2022-10-13T02:24:14;100315.28;;;14.82;100.00
48652;BME280;34442;52.362;-1.302;2022-10-13T02:26:42;100326.34;;;14.80;100.00
48652;BME280;34442;52.362;-1.302;2022-10-13T02:29:13;100321.53;;;14.82;100.00
48652;BME280;34442;52.362;-1.302;2022-10-13T02:31:41;100319.63;;;14.83;100.00
48652;BME280;34442;52.362;-1.302;2022-10-13T02:34:07;100322.34;;;14.83;100.00
48652;BME280;34442;52.362;-1.302;2022-10-13T02:36:34;100327.88;;;14.76;100.00
48652;BME280;34442;52.362;-1.302;2022-10-13T02:39:00;100311.06;;;14.74;100.00
48652;BME280;34442;52.362;-1.302;2022-10-13T02:41:26;100309.16;;;14.75;100.00
48652;BME280;34442;52.362;-1.302;2022-10-13T02:43:52;100308.91;;;14.76;100.00
48652;BME280;34442;52.362;-1.302;2022-10-13T02:46:17;100307.88;;;14.77;100.00
48652;BME280;34442;52.362;-1.302;2022-10-13T02:48:43;100300.59;;;14.78;100.00
48652;BME280;34442;52.362;-1.302;2022-10-13T02:51:09;100306.81;;;14.78;100.00
48652;BME280;34442;52.362;-1.302;2022-10-13T02:53:35;100303.66;;;14.81;100.00
48652;BME280;34442;52.362;-1.302;2022-10-13T02:56:01;100306.94;;;14.83;100.00
48652;BME280;34442;52.362;-1.302;2022-10-13T02:58:27;100309.88;;;14.82;100.00
48652;BME280;34442;52.362;-1.302;2022-10-13T03:00:53;100316.13;;;14.82;100.00
48652;BME280;34442;52.362;-1.302;2022-10-13T03:03:19;100315.50;;;14.80;100.00
48652;BME280;34442;52.362;-1.302;2022-10-13T03:05:45;100321.41;;;14.77;100.00
48652;BME280;34442;52.362;-1.302;2022-10-13T03:08:11;100327.03;;;14.76;100.00
48652;BME280;34442;52.362;-1.302;2022-10-13T03:10:37;100322.94;;;14.73;100.00
48652;BME280;34442;52.362;-1.302;2022-10-13T03:13:03;100318.00;;;14.70;100.00
48652;BME280;34442;52.362;-1.302;2022-10-13T03:15:29;100312.13;;;14.73;100.00
48652;BME280;34442;52.362;-1.302;2022-10-13T03:17:55;100314.94;;;14.78;100.00
48652;BME280;34442;52.362;-1.302;2022-10-13T03:20:21;100323.63;;;14.80;100.00
48652;BME280;34442;52.362;-1.302;2022-10-13T03:22:47;100321.53;;;14.82;100.00
48652;BME280;34442;52.362;-1.302;2022-10-13T03:25:13;100317.50;;;14.85;100.00
48652;BME280;34442;52.362;-1.302;2022-10-13T03:27:39;100313.97;;;14.84;100.00
48652;BME280;34442;52.362;-1.302;2022-10-13T03:30:05;100308.34;;;14.86;100.00
48652;BME280;34442;52.362;-1.302;2022-10-13T03:32:31;100302.69;;;14.87;100.00
48652;BME280;34442;52.362;-1.302;2022-10-13T03:34:57;100304.31;;;14.88;100.00
48652;BME280;34442;52.362;-1.302;2022-10-13T03:37:23;100302.78;;;14.93;100.00
48652;BME280;34442;52.362;-1.302;2022-10-13T03:39:49;100303.63;;;14.93;100.00
48652;BME280;34442;52.362;-1.302;2022-10-13T03:42:15;100304.22;;;14.95;100.00
48652;BME280;34442;52.362;-1.302;2022-10-13T03:44:42;100301.41;;;15.02;100.00
48652;BME280;34442;52.362;-1.302;2022-10-13T03:47:08;100305.75;;;15.03;100.00
48652;BME280;34442;52.362;-1.302;2022-10-13T03:49:36;100306.81;;;15.02;100.00
48652;BME280;34442;52.362;-1.302;2022-10-13T03:52:03;100311.63;;;15.00;100.00
48652;BME280;34442;52.362;-1.302;2022-10-13T03:54:29;100304.56;;;14.99;100.00
48652;BME280;34442;52.362;-1.302;2022-10-13T03:56:55;100301.41;;;15.02;100.00
48652;BME280;34442;52.362;-1.302;2022-10-13T03:59:21;100298.69;;;15.02;100.00
48652;BME280;34442;52.362;-1.302;2022-10-13T04:01:47;100295.13;;;15.01;100.00
48652;BME280;34442;52.362;-1.302;2022-10-13T04:04:13;100298.34;;;14.98;100.00
48652;BME280;34442;52.362;-1.302;2022-10-13T04:06:39;100297.25;;;14.99;100.00
48652;BME280;34442;52.362;-1.302;2022-10-13T04:09:05;100281.84;;;15.00;100.00
48652;BME280;34442;52.362;-1.302;2022-10-13T04:11:31;100272.19;;;15.04;100.00
48652;BME280;34442;52.362;-1.302;2022-10-13T04:13:57;100276.19;;;15.01;100.00
48652;BME280;34442;52.362;-1.302;2022-10-13T04:16:26;100273.63;;;14.95;100.00
48652;BME280;34442;52.362;-1.302;2022-10-13T04:18:55;100270.81;;;14.89;100.00
48652;BME280;34442;52.362;-1.302;2022-10-13T04:21:22;100265.50;;;14.83;100.00
48652;BME280;34442;52.362;-1.302;2022-10-13T04:23:49;100278.13;;;14.77;100.00
48652;BME280;34442;52.362;-1.302;2022-10-13T04:26:17;100276.09;;;14.73;100.00
48652;BME280;34442;52.362;-1.302;2022-10-13T04:28:47;100274.09;;;14.68;100.00
48652;BME280;34442;52.362;-1.302;2022-10-13T04:31:13;100274.47;;;14.60;100.00
48652;BME280;34442;52.362;-1.302;2022-10-13T04:33:39;100277.97;;;14.60;100.00
48652;BME280;34442;52.362;-1.302;2022-10-13T04:36:07;100273.53;;;14.66;100.00
48652;BME280;34442;52.362;-1.302;2022-10-13T04:38:33;100269.50;;;14.69;100.00
48652;BME280;34442;52.362;-1.302;2022-10-13T04:41:03;100270.94;;;14.71;100.00
48652;BME280;34442;52.362;-1.302;2022-10-13T04:43:30;100262.56;;;14.73;100.00
48652;BME280;34442;52.362;-1.302;2022-10-13T04:46:00;100257.75;;;14.75;100.00
48652;BME280;34442;52.362;-1.302;2022-10-13T04:48:27;100259.63;;;14.74;100.00
48652;BME280;34442;52.362;-1.302;2022-10-13T04:51:05;100260.47;;;14.75;100.00
48652;BME280;34442;52.362;-1.302;2022-10-13T04:53:31;100254.78;;;14.76;100.00
48652;BME280;34442;52.362;-1.302;2022-10-13T04:56:03;100251.28;;;14.76;100.00
48652;BME280;34442;52.362;-1.302;2022-10-13T04:58:30;100254.78;;;14.76;100.00
48652;BME280;34442;52.362;-1.302;2022-10-13T05:00:56;100257.16;;;14.73;100.00
48652;BME280;34442;52.362;-1.302;2022-10-13T05:03:23;100263.41;;;14.73;100.00
48652;BME280;34442;52.362;-1.302;2022-10-13T05:05:49;100267.50;;;14.76;100.00
48652;BME280;34442;52.362;-1.302;2022-10-13T05:08:15;100269.16;;;14.77;100.00
48652;BME280;34442;52.362;-1.302;2022-10-13T05:10:41;100269.66;;;14.74;100.00
48652;BME280;34442;52.362;-1.302;2022-10-13T05:13:07;100266.34;;;14.72;100.00
48652;BME280;34442;52.362;-1.302;2022-10-13T05:15:33;100269.03;;;14.72;100.00
48652;BME280;34442;52.362;-1.302;2022-10-13T05:17:59;100260.94;;;14.72;100.00
48652;BME280;34442;52.362;-1.302;2022-10-13T05:20:26;100261.75;;;14.72;100.00
48652;BME280;34442;52.362;-1.302;2022-10-13T05:22:52;100260.72;;;14.73;100.00
48652;BME280;34442;52.362;-1.302;2022-10-13T05:25:18;100266.34;;;14.72;100.00
48652;BME280;34442;52.362;-1.302;2022-10-13T05:27:44;100269.03;;;14.72;100.00
48652;BME280;34442;52.362;-1.302;2022-10-13T05:30:11;100270.09;;;14.71;100.00
48652;BME280;34442;52.362;-1.302;2022-10-13T05:32:37;100267.88;;;14.68;100.00
48652;BME280;34442;52.362;-1.302;2022-10-13T05:35:03;100266.81;;;14.69;100.00
48652;BME280;34442;52.362;-1.302;2022-10-13T05:37:29;100268.69;;;14.68;100.00
48652;BME280;34442;52.362;-1.302;2022-10-13T05:39:55;100273.16;;;14.51;100.00
48652;BME280;34442;52.362;-1.302;2022-10-13T05:42:21;100273.63;;;14.59;100.00
48652;BME280;34442;52.362;-1.302;2022-10-13T05:44:47;100284.00;;;14.62;100.00
48652;BME280;34442;52.362;-1.302;2022-10-13T05:47:13;100287.53;;;14.63;100.00
48652;BME280;34442;52.362;-1.302;2022-10-13T05:49:39;100290.22;;;14.63;100.00
48652;BME280;34442;52.362;-1.302;2022-10-13T05:52:08;100288.34;;;14.63;100.00
48652;BME280;34442;52.362;-1.302;2022-10-13T05:54:42;100297.28;;;14.64;100.00
48652;BME280;34442;52.362;-1.302;2022-10-13T05:57:21;100299.53;;;14.67;100.00
48652;BME280;34442;52.362;-1.302;2022-10-13T05:59:59;100297.06;;;14.66;100.00
48652;BME280;34442;52.362;-1.302;2022-10-13T06:02:31;100303.28;;;14.66;100.00
48652;BME280;34442;52.362;-1.302;2022-10-13T06:05:00;100307.28;;;14.63;100.00
48652;BME280;34442;52.362;-1.302;2022-10-13T06:07:28;100306.22;;;14.53;100.00
48652;BME280;34442;52.362;-1.302;2022-10-13T06:09:58;100303.75;;;14.51;100.00
48652;BME280;34442;52.362;-1.302;2022-10-13T06:12:24;100298.53;;;14.38;100.00
48652;BME280;34442;52.362;-1.302;2022-10-13T06:14:50;100305.72;;;14.32;100.00
48652;BME280;34442;52.362;-1.302;2022-10-13T06:17:16;100298.06;;;14.29;100.00
48652;BME280;34442;52.362;-1.302;2022-10-13T06:19:42;100295.09;;;14.31;100.00
48652;BME280;34442;52.362;-1.302;2022-10-13T06:22:10;100288.66;;;14.32;100.00
48652;BME280;34442;52.362;-1.302;2022-10-13T06:24:36;100283.00;;;14.33;100.00
48652;BME280;34442;52.362;-1.302;2022-10-13T06:27:02;100283.84;;;14.34;100.00
48652;BME280;34442;52.362;-1.302;2022-10-13T06:29:28;100271.03;;;14.41;100.00
48652;BME280;34442;52.362;-1.302;2022-10-13T06:31:54;100273.03;;;14.46;100.00
48652;BME280;34442;52.362;-1.302;2022-10-13T06:34:20;100273.84;;;14.46;100.00
48652;BME280;34442;52.362;-1.302;2022-10-13T06:36:46;100269.25;;;14.47;100.00
48652;BME280;34442;52.362;-1.302;2022-10-13T06:39:12;100268.56;;;14.51;100.00
48652;BME280;34442;52.362;-1.302;2022-10-13T06:41:39;100266.22;;;14.55;100.00
48652;BME280;34442;52.362;-1.302;2022-10-13T06:44:05;100254.59;;;14.54;100.00
48652;BME280;34442;52.362;-1.302;2022-10-13T06:46:31;100253.03;;;14.47;100.00
48652;BME280;34442;52.362;-1.302;2022-10-13T06:48:57;100256.38;;;14.49;100.00
48652;BME280;34442;52.362;-1.302;2022-10-13T06:51:23;100256.94;;;14.51;100.00
48652;BME280;34442;52.362;-1.302;2022-10-13T06:53:50;100249.44;;;14.53;100.00
48652;BME280;34442;52.362;-1.302;2022-10-13T06:56:16;100257.03;;;14.56;100.00
48652;BME280;34442;52.362;-1.302;2022-10-13T06:58:42;100248.34;;;14.54;100.00
48652;BME280;34442;52.362;-1.302;2022-10-13T07:01:11;100242.84;;;14.49;100.00
48652;BME280;34442;52.362;-1.302;2022-10-13T07:03:37;100251.13;;;14.35;100.00
48652;BME280;34442;52.362;-1.302;2022-10-13T07:06:04;100256.06;;;14.38;100.00
48652;BME280;34442;52.362;-1.302;2022-10-13T07:08:32;100258.91;;;14.44;100.00
48652;BME280;34442;52.362;-1.302;2022-10-13T07:11:04;100252.66;;;14.43;100.00
48652;BME280;34442;52.362;-1.302;2022-10-13T07:13:30;100268.44;;;14.34;100.00
48652;BME280;34442;52.362;-1.302;2022-10-13T07:15:56;100263.03;;;14.46;100.00
48652;BME280;34442;52.362;-1.302;2022-10-13T07:18:22;100261.28;;;14.52;100.00
48652;BME280;34442;52.362;-1.302;2022-10-13T07:20:48;100264.81;;;14.52;100.00
48652;BME280;34442;52.362;-1.302;2022-10-13T07:23:14;100268.59;;;14.63;100.00
48652;BME280;34442;52.362;-1.302;2022-10-13T07:25:40;100276.59;;;14.70;100.00
48652;BME280;34442;52.362;-1.302;2022-10-13T07:28:06;100278.81;;;14.73;100.00
48652;BME280;34442;52.362;-1.302;2022-10-13T07:30:32;100275.88;;;14.74;100.00
48652;BME280;34442;52.362;-1.302;2022-10-13T07:32:58;100282.09;;;14.75;100.00
48652;BME280;34442;52.362;-1.302;2022-10-13T07:35:24;100279.16;;;14.76;100.00
48652;BME280;34442;52.362;-1.302;2022-10-13T07:37:53;100284.91;;;14.80;100.00
48652;BME280;34442;52.362;-1.302;2022-10-13T07:40:19;100274.91;;;14.80;100.00
48652;BME280;34442;52.362;-1.302;2022-10-13T07:42:45;100286.81;;;14.79;100.00
48652;BME280;34442;52.362;-1.302;2022-10-13T07:45:11;100282.81;;;14.82;100.00
48652;BME280;34442;52.362;-1.302;2022-10-13T07:47:37;100280.47;;;14.85;100.00
48652;BME280;34442;52.362;-1.302;2022-10-13T07:50:03;100280.94;;;14.82;100.00
48652;BME280;34442;52.362;-1.302;2022-10-13T07:52:29;100286.81;;;14.79;100.00
48652;BME280;34442;52.362;-1.302;2022-10-13T07:54:55;100284.22;;;14.84;100.00
48652;BME280;34442;52.362;-1.302;2022-10-13T07:57:25;100288.44;;;14.80;100.00
48652;BME280;34442;52.362;-1.302;2022-10-13T07:59:51;100285.88;;;14.74;100.00
48652;BME280;34442;52.362;-1.302;2022-10-13T08:02:17;100282.94;;;14.75;100.00
48652;BME280;34442;52.362;-1.302;2022-10-13T08:04:43;100285.06;;;14.73;100.00
48652;BME280;34442;52.362;-1.302;2022-10-13T08:07:10;100289.31;;;14.69;100.00
48652;BME280;34442;52.362;-1.302;2022-10-13T08:09:36;100289.28;;;14.57;100.00
48652;BME280;34442;52.362;-1.302;2022-10-13T08:12:03;100286.81;;;14.68;100.00
48652;BME280;34442;52.362;-1.302;2022-10-13T08:14:29;100279.16;;;14.76;100.00
48652;BME280;34442;52.362;-1.302;2022-10-13T08:16:56;100287.41;;;14.81;100.00
48652;BME280;34442;52.362;-1.302;2022-10-13T08:19:23;100285.38;;;14.77;100.00
48652;BME280;34442;52.362;-1.302;2022-10-13T08:21:51;100282.22;;;14.92;100.00
48652;BME280;34442;52.362;-1.302;2022-10-13T08:24:17;100278.44;;;14.93;100.00
48652;BME280;34442;52.362;-1.302;2022-10-13T08:26:45;100280.66;;;14.96;100.00
48652;BME280;34442;52.362;-1.302;2022-10-13T08:29:12;100266.75;;;15.04;100.00
48652;BME280;34442;52.362;-1.302;2022-10-13T08:31:38;100271.47;;;14.97;100.00
48652;BME280;34442;52.362;-1.302;2022-10-13T08:34:04;100269.94;;;15.01;100.00
48652;BME280;34442;52.362;-1.302;2022-10-13T08:36:30;100270.44;;;14.98;100.00
48652;BME280;34442;52.362;-1.302;2022-10-13T08:38:56;100263.13;;;14.98;100.00
48652;BME280;34442;52.362;-1.302;2022-10-13T08:41:24;100258.19;;;14.95;100.00
48652;BME280;34442;52.362;-1.302;2022-10-13T08:43:55;100261.16;;;14.82;100.00
48652;BME280;34442;52.362;-1.302;2022-10-13T08:46:27;100253.63;;;14.84;100.00
48652;BME280;34442;52.362;-1.302;2022-10-13T08:48:58;100253.16;;;14.87;100.00
48652;BME280;34442;52.362;-1.302;2022-10-13T08:51:26;100256.56;;;14.82;100.00
48652;BME280;34442;52.362;-1.302;2022-10-13T08:53:53;100264.69;;;14.71;100.00
48652;BME280;34442;52.362;-1.302;2022-10-13T08:56:29;100263.41;;;14.73;100.00
48652;BME280;34442;52.362;-1.302;2022-10-13T08:58:56;100273.06;;;14.69;100.00
48652;BME280;34442;52.362;-1.302;2022-10-13T09:01:27;100272.09;;;14.52;100.00
48652;BME280;34442;52.362;-1.302;2022-10-13T09:06:39;100268.81;;;14.73;100.00
48652;BME280;34442;52.362;-1.302;2022-10-13T09:09:09;100273.63;;;14.83;100.00
48652;BME280;34442;52.362;-1.302;2022-10-13T09:11:37;100265.78;;;15.10;100.00
48652;BME280;34442;52.362;-1.302;2022-10-13T09:14:09;100268.56;;;14.98;100.00
48652;BME280;34442;52.362;-1.302;2022-10-13T09:16:42;100270.75;;;15.01;100.00
48652;BME280;34442;52.362;-1.302;2022-10-13T09:19:27;100276.75;;;15.15;100.00
48652;BME280;34442;52.362;-1.302;2022-10-13T09:27:47;100281.56;;;15.13;100.00
48652;BME280;34442;52.362;-1.302;2022-10-13T09:30:26;100292.75;;;15.17;100.00
48652;BME280;34442;52.362;-1.302;2022-10-13T09:38:23;100312.59;;;15.34;100.00
48652;BME280;34442;52.362;-1.302;2022-10-13T09:41:03;100314.84;;;15.37;100.00
48652;BME280;34442;52.362;-1.302;2022-10-13T09:43:35;100307.78;;;15.36;100.00
48652;BME280;34442;52.362;-1.302;2022-10-13T09:46:18;100314.13;;;15.42;100.00
48652;BME280;34442;52.362;-1.302;2022-10-13T09:48:51;100297.97;;;15.47;100.00
48652;BME280;34442;52.362;-1.302;2022-10-13T09:51:31;100304.69;;;15.44;100.00
48652;BME280;34442;52.362;-1.302;2022-10-13T09:53:58;100305.97;;;15.53;100.00
48652;BME280;34442;52.362;-1.302;2022-10-13T09:56:49;100302.63;;;15.63;100.00
48652;BME280;34442;52.362;-1.302;2022-10-13T09:59:27;100309.44;;;15.77;100.00
48652;BME280;34442;52.362;-1.302;2022-10-13T10:01:57;100310.13;;;15.84;100.00
48652;BME280;34442;52.362;-1.302;2022-10-13T10:04:28;100306.91;;;15.87;100.00
48652;BME280;34442;52.362;-1.302;2022-10-13T10:06:55;100311.31;;;15.77;100.00
48652;BME280;34442;52.362;-1.302;2022-10-13T10:09:31;100308.00;;;16.03;100.00
48652;BME280;34442;52.362;-1.302;2022-10-13T10:12:00;100308.72;;;15.99;100.00
48652;BME280;34442;52.362;-1.302;2022-10-13T10:14:30;100309.94;;;15.91;100.00
48652;BME280;34442;52.362;-1.302;2022-10-13T10:22:28;100303.31;;;16.16;100.00
48652;BME280;34442;52.362;-1.302;2022-10-13T10:28:15;100309.88;;;16.03;100.00
48652;BME280;34442;52.362;-1.302;2022-10-13T10:30:50;100301.19;;;16.01;100.00
48652;BME280;34442;52.362;-1.302;2022-10-13T10:36:14;100296.44;;;15.79;100.00
48652;BME280;34442;52.362;-1.302;2022-10-13T10:38:49;100291.78;;;15.92;100.00
48652;BME280;34442;52.362;-1.302;2022-10-13T10:41:38;100296.53;;;16.13;100.00
48652;BME280;34442;52.362;-1.302;2022-10-13T10:44:16;100294.44;;;16.20;100.00
48652;BME280;34442;52.362;-1.302;2022-10-13T10:46:48;100293.72;;;16.25;100.00
48652;BME280;34442;52.362;-1.302;2022-10-13T10:51:47;100288.38;;;16.30;100.00
48652;BME280;34442;52.362;-1.302;2022-10-13T11:02:26;100270.78;;;16.16;100.00
48652;BME280;34442;52.362;-1.302;2022-10-13T11:04:58;100271.78;;;16.09;100.00
48652;BME280;34442;52.362;-1.302;2022-10-13T11:15:21;100276.13;;;16.44;100.00
48652;BME280;34442;52.362;-1.302;2022-10-13T11:17:49;100282.97;;;16.47;100.00
48652;BME280;34442;52.362;-1.302;2022-10-13T11:25:46;100283.09;;;16.57;100.00
48652;BME280;34442;52.362;-1.302;2022-10-13T11:30:53;100279.31;;;16.41;100.00
48652;BME280;34442;52.362;-1.302;2022-10-13T11:36:34;100276.44;;;16.48;100.00
48652;BME280;34442;52.362;-1.302;2022-10-13T11:42:28;100266.41;;;16.48;100.00
48652;BME280;34442;52.362;-1.302;2022-10-13T11:45:10;100265.19;;;16.56;100.00
48652;BME280;34442;52.362;-1.302;2022-10-13T11:47:52;100263.59;;;16.60;100.00
48652;BME280;34442;52.362;-1.302;2022-10-13T11:51:00;100253.41;;;16.67;100.00
48652;BME280;34442;52.362;-1.302;2022-10-13T11:53:51;100255.84;;;16.69;100.00
48652;BME280;34442;52.362;-1.302;2022-10-13T11:56:22;100254.72;;;16.65;100.00
48652;BME280;34442;52.362;-1.302;2022-10-13T11:58:56;100239.94;;;16.55;100.00
48652;BME280;34442;52.362;-1.302;2022-10-13T12:01:22;100236.50;;;16.43;100.00
48652;BME280;34442;52.362;-1.302;2022-10-13T12:03:48;100239.88;;;16.50;100.00
48652;BME280;34442;52.362;-1.302;2022-10-13T12:08:45;100234.63;;;16.66;100.00
48652;BME280;34442;52.362;-1.302;2022-10-13T12:11:31;100220.53;;;16.47;100.00
48652;BME280;34442;52.362;-1.302;2022-10-13T12:13:59;100223.69;;;16.38;100.00
48652;BME280;34442;52.362;-1.302;2022-10-13T12:16:26;100219.16;;;16.27;100.00
48652;BME280;34442;52.362;-1.302;2022-10-13T12:19:18;100211.69;;;16.34;100.00
48652;BME280;34442;52.362;-1.302;2022-10-13T12:21:53;100210.28;;;16.32;100.00
48652;BME280;34442;52.362;-1.302;2022-10-13T12:24:22;100217.19;;;16.40;100.00
48652;BME280;34442;52.362;-1.302;2022-10-13T12:26:49;100215.34;;;16.45;100.00
48652;BME280;34442;52.362;-1.302;2022-10-13T12:29:16;100206.47;;;16.50;100.00
48652;BME280;34442;52.362;-1.302;2022-10-13T12:31:45;100204.88;;;16.54;100.00
48652;BME280;34442;52.362;-1.302;2022-10-13T12:34:32;100212.31;;;16.58;100.00
48652;BME280;34442;52.362;-1.302;2022-10-13T12:37:23;100212.03;;;16.60;100.00
48652;BME280;34442;52.362;-1.302;2022-10-13T12:39:50;100219.75;;;16.68;100.00
48652;BME280;34442;52.362;-1.302;2022-10-13T12:42:17;100224.50;;;16.78;100.00
48652;BME280;34442;52.362;-1.302;2022-10-13T12:44:43;100216.25;;;16.90;100.00
48652;BME280;34442;52.362;-1.302;2022-10-13T12:55:56;100212.16;;;17.09;100.00
48652;BME280;34442;52.362;-1.302;2022-10-13T12:58:23;100209.16;;;17.10;100.00
48652;BME280;34442;52.362;-1.302;2022-10-13T13:03:29;100199.38;;;17.09;100.00
48652;BME280;34442;52.362;-1.302;2022-10-13T13:08:33;100185.31;;;17.13;100.00
48652;BME280;34442;52.362;-1.302;2022-10-13T13:11:01;100178.78;;;17.14;100.00
48652;BME280;34442;52.362;-1.302;2022-10-13T13:13:27;100179.50;;;17.04;100.00
48652;BME280;34442;52.362;-1.302;2022-10-13T13:16:12;100169.78;;;17.08;100.00
48652;BME280;34442;52.362;-1.302;2022-10-13T13:18:40;100169.47;;;17.04;100.00
48652;BME280;34442;52.362;-1.302;2022-10-13T13:21:17;100168.28;;;16.95;100.00
48652;BME280;34442;52.362;-1.302;2022-10-13T13:23:46;100172.50;;;16.86;100.00
48652;BME280;34442;52.362;-1.302;2022-10-13T13:26:15;100178.03;;;16.74;100.00
48652;BME280;34442;52.362;-1.302;2022-10-13T13:28:51;100182.97;;;16.77;100.00
48652;BME280;34442;52.362;-1.302;2022-10-13T13:31:19;100171.66;;;16.85;100.00
48652;BME280;34442;52.362;-1.302;2022-10-13T13:33:46;100169.91;;;16.96;100.00
48652;BME280;34442;52.362;-1.302;2022-10-13T13:36:18;100162.91;;;17.00;100.00
48652;BME280;34442;52.362;-1.302;2022-10-13T13:38:44;100163.75;;;17.06;100.00
48652;BME280;34442;52.362;-1.302;2022-10-13T13:41:11;100156.38;;;17.01;100.00
48652;BME280;34442;52.362;-1.302;2022-10-13T13:43:38;100158.28;;;17.01;100.00
48652;BME280;34442;52.362;-1.302;2022-10-13T13:46:06;100162.63;;;17.02;100.00
48652;BME280;34442;52.362;-1.302;2022-10-13T13:48:37;100149.06;;;17.02;100.00
48652;BME280;34442;52.362;-1.302;2022-10-13T13:51:03;100155.34;;;17.07;100.00
48652;BME280;34442;52.362;-1.302;2022-10-13T13:53:29;100145.06;;;17.09;100.00
48652;BME280;34442;52.362;-1.302;2022-10-13T13:55:55;100152.41;;;17.09;100.00
48652;BME280;34442;52.362;-1.302;2022-10-13T13:58:21;100141.16;;;17.00;100.00
48652;BME280;34442;52.362;-1.302;2022-10-13T14:00:47;100140.59;;;16.98;100.00
48652;BME280;34442;52.362;-1.302;2022-10-13T14:03:13;100145.16;;;16.93;100.00
48652;BME280;34442;52.362;-1.302;2022-10-13T14:05:39;100142.38;;;16.88;100.00
48652;BME280;34442;52.362;-1.302;2022-10-13T14:08:06;100137.78;;;16.88;100.00
48652;BME280;34442;52.362;-1.302;2022-10-13T14:10:33;100143.38;;;16.81;100.00
48652;BME280;34442;52.362;-1.302;2022-10-13T14:12:59;100137.41;;;16.79;100.00
48652;BME280;34442;52.362;-1.302;2022-10-13T14:15:26;100139.66;;;16.88;100.00
48652;BME280;34442;52.362;-1.302;2022-10-13T14:17:52;100144.84;;;16.89;100.00
48652;BME280;34442;52.362;-1.302;2022-10-13T14:20:19;100140.81;;;16.92;100.00